Time;durP1;ratioP1;P1;durP2;ratioP2;P2;SDS_P1;SDS_P2;PMS_P1;PMS_P2;Temp;Humidity;BMP_temperature;BMP_pressure;BME280_temperature;BME280_humidity;BME280_pressure;Samples;Min_cycle;Max_cycle;Signal;HPM_P1;HPM_P2
2021/10/28 00:13:40;;;;;;;11.43;5.00;;;10.60;99.90;;;;;;5049775;28;20523;-69
2021/10/28 00:16:16;;;;;;;12.35;4.85;;;10.60;99.90;;;;;;5036590;28;20548;-65
2021/10/28 00:18:48;;;;;;;11.73;5.53;;;10.60;99.90;;;;;;5041145;28;20040;-64
2021/10/28 00:21:14;;;;;;;11.75;4.97;;;10.60;99.90;;;;;;5035188;28;20043;-65
2021/10/28 00:23:43;;;;;;;10.77;4.95;;;10.60;99.90;;;;;;5037928;28;20397;-65
2021/10/28 00:26:10;;;;;;;10.50;5.45;;;10.60;99.90;;;;;;5055029;28;20037;-67
2021/10/28 00:28:36;;;;;;;10.30;4.10;;;10.50;99.90;;;;;;5031316;28;20043;-65
2021/10/28 00:31:03;;;;;;;12.65;5.53;;;10.50;99.90;;;;;;5040632;28;20033;-67
2021/10/28 00:33:31;;;;;;;9.95;5.63;;;10.50;99.90;;;;;;5068834;28;20029;-68
2021/10/28 00:35:57;;;;;;;14.07;5.35;;;10.50;99.90;;;;;;5069026;28;20025;-64
2021/10/28 00:38:22;;;;;;;10.98;5.22;;;10.40;99.90;;;;;;5042639;28;20029;-64
2021/10/28 00:40:49;;;;;;;12.20;5.25;;;10.40;99.90;;;;;;5034968;28;20036;-65
2021/10/28 00:43:15;;;;;;;11.02;5.05;;;10.40;99.90;;;;;;5051062;28;20451;-66
2021/10/28 00:45:40;;;;;;;11.25;5.88;;;10.40;99.90;;;;;;5058692;28;20065;-65
2021/10/28 00:48:07;;;;;;;14.48;5.50;;;10.50;99.90;;;;;;5060988;28;20044;-64
2021/10/28 00:50:34;;;;;;;11.23;5.50;;;10.50;99.90;;;;;;5049632;28;20041;-65
2021/10/28 00:53:00;;;;;;;13.48;5.07;;;10.40;99.90;;;;;;5031035;28;20087;-65
2021/10/28 00:55:26;;;;;;;18.38;5.40;;;10.40;99.90;;;;;;5035164;28;20037;-65
2021/10/28 00:57:53;;;;;;;8.60;5.25;;;10.40;99.90;;;;;;5052847;28;20155;-65
2021/10/28 01:00:19;;;;;;;11.07;5.88;;;10.40;99.90;;;;;;5064819;28;20055;-65
2021/10/28 01:02:45;;;;;;;13.70;5.40;;;10.40;99.90;;;;;;5052637;28;20639;-66
2021/10/28 01:05:11;;;;;;;10.45;5.05;;;10.30;99.90;;;;;;5050613;28;20040;-65
2021/10/28 01:07:37;;;;;;;10.25;4.70;;;10.30;99.90;;;;;;5066704;28;20854;-65
2021/10/28 01:10:04;;;;;;;11.20;4.60;;;10.30;99.90;;;;;;5042982;28;20036;-65
2021/10/28 01:12:29;;;;;;;12.80;5.90;;;10.30;99.90;;;;;;5035827;28;20043;-68
2021/10/28 01:14:55;;;;;;;12.07;4.88;;;10.20;99.90;;;;;;5038010;28;20144;-65
2021/10/28 01:17:21;;;;;;;14.23;6.28;;;10.20;99.90;;;;;;5064416;28;20048;-64
2021/10/28 01:19:52;;;;;;;12.10;4.78;;;10.20;99.90;;;;;;5060855;28;20115;-65
2021/10/28 01:22:18;;;;;;;10.48;4.88;;;10.20;99.90;;;;;;5056238;28;20037;-65
2021/10/28 01:24:43;;;;;;;15.43;6.20;;;10.20;99.90;;;;;;5031298;28;20444;-65
2021/10/28 01:27:09;;;;;;;9.00;4.97;;;10.20;99.90;;;;;;5063673;28;20051;-65
2021/10/28 01:29:36;;;;;;;11.30;5.20;;;10.20;99.90;;;;;;5048470;28;20024;-66
2021/10/28 01:32:03;;;;;;;12.75;4.80;;;10.20;99.90;;;;;;5052804;28;20087;-65
2021/10/28 01:34:28;;;;;;;11.80;5.38;;;10.20;99.90;;;;;;5056680;28;20105;-66
2021/10/28 01:36:57;;;;;;;19.42;5.80;;;10.20;99.90;;;;;;5043589;28;20564;-67
2021/10/28 01:39:23;;;;;;;11.25;5.32;;;10.20;99.90;;;;;;5068254;28;20446;-66
2021/10/28 01:41:53;;;;;;;9.02;5.15;;;10.20;99.90;;;;;;5056537;28;20032;-64
2021/10/28 01:44:20;;;;;;;11.15;5.45;;;10.20;99.90;;;;;;5064637;28;20464;-65
2021/10/28 01:46:46;;;;;;;8.88;5.15;;;10.10;99.90;;;;;;5049298;28;20057;-65
2021/10/28 01:49:41;;;;;;;10.13;4.75;;;10.20;99.90;;;;;;5034226;28;20033;-65
2021/10/28 01:52:11;;;;;;;11.80;4.78;;;10.20;99.90;;;;;;5025976;28;20033;-65
2021/10/28 01:54:37;;;;;;;15.80;5.63;;;10.20;99.90;;;;;;5030726;28;20492;-65
2021/10/28 01:57:03;;;;;;;11.85;4.90;;;10.20;99.90;;;;;;5067039;28;20043;-66
2021/10/28 01:59:29;;;;;;;10.32;4.95;;;10.10;99.90;;;;;;5049955;28;20500;-65
2021/10/28 02:01:55;;;;;;;11.60;4.97;;;10.10;99.90;;;;;;5060903;28;20033;-65
2021/10/28 02:04:20;;;;;;;14.90;5.35;;;10.10;99.90;;;;;;5034358;28;20040;-64
2021/10/28 02:06:46;;;;;;;14.05;4.60;;;10.10;99.90;;;;;;5046823;28;20075;-65
2021/10/28 02:09:11;;;;;;;14.95;6.65;;;10.10;99.90;;;;;;5042669;28;20036;-66
2021/10/28 02:11:37;;;;;;;12.52;5.15;;;10.10;99.90;;;;;;5056688;28;21458;-65
2021/10/28 02:14:03;;;;;;;17.23;5.05;;;10.10;99.90;;;;;;5062416;28;20033;-65
2021/10/28 02:16:34;;;;;;;14.38;5.10;;;10.10;99.90;;;;;;5066949;28;20500;-68
2021/10/28 02:19:00;;;;;;;11.60;5.25;;;10.20;99.90;;;;;;5039437;28;20158;-65
2021/10/28 02:21:27;;;;;;;13.73;4.90;;;10.10;99.90;;;;;;5057635;28;20052;-65
2021/10/28 02:23:54;;;;;;;15.40;4.90;;;10.10;99.90;;;;;;5030204;28;20489;-66
2021/10/28 02:26:21;;;;;;;9.40;4.57;;;10.10;99.90;;;;;;5060358;28;20492;-65
2021/10/28 02:28:46;;;;;;;12.30;4.93;;;10.10;99.90;;;;;;5038020;28;20044;-65
2021/10/28 02:31:12;;;;;;;9.40;4.47;;;10.10;99.90;;;;;;5033536;28;20113;-66
2021/10/28 02:33:38;;;;;;;13.18;5.03;;;10.00;99.90;;;;;;5055461;28;20028;-64
2021/10/28 02:36:03;;;;;;;11.57;5.07;;;10.10;99.90;;;;;;5059539;28;20032;-67
2021/10/28 02:38:29;;;;;;;9.00;4.40;;;10.00;99.90;;;;;;5055079;28;20033;-65
2021/10/28 02:40:55;;;;;;;13.25;4.85;;;10.10;99.90;;;;;;5063082;28;20563;-67
2021/10/28 02:43:21;;;;;;;11.75;4.28;;;10.10;99.90;;;;;;5033882;28;20090;-65
2021/10/28 02:45:47;;;;;;;10.45;5.43;;;10.10;99.90;;;;;;5071977;28;20032;-65
2021/10/28 02:48:12;;;;;;;14.05;4.47;;;10.10;99.90;;;;;;5071200;28;20025;-65
2021/10/28 02:50:38;;;;;;;13.38;4.60;;;10.10;99.90;;;;;;5055154;28;20029;-65
2021/10/28 02:53:03;;;;;;;12.57;4.43;;;10.10;99.90;;;;;;5056546;28;20049;-67
2021/10/28 02:55:29;;;;;;;12.90;3.97;;;10.00;99.90;;;;;;5051423;28;20025;-64
2021/10/28 02:57:55;;;;;;;9.98;4.10;;;10.00;99.90;;;;;;5041491;28;20037;-64
2021/10/28 03:00:20;;;;;;;10.02;4.43;;;10.00;99.90;;;;;;5037725;28;20037;-66
2021/10/28 03:02:46;;;;;;;7.95;4.05;;;10.10;99.90;;;;;;5049265;28;20396;-66
2021/10/28 03:05:12;;;;;;;12.50;4.10;;;10.10;99.90;;;;;;5040688;28;20041;-65
2021/10/28 03:07:38;;;;;;;13.27;4.57;;;10.00;99.90;;;;;;5040677;28;20044;-65
2021/10/28 03:10:07;;;;;;;12.60;4.18;;;10.00;99.90;;;;;;5070779;28;20039;-65
2021/10/28 03:12:34;;;;;;;9.13;4.30;;;10.00;99.90;;;;;;5033929;28;20037;-65
2021/10/28 03:15:03;;;;;;;12.77;4.10;;;10.00;99.90;;;;;;5059006;28;20033;-65
2021/10/28 03:28:00;;;;;;;11.75;3.40;;;10.00;99.90;;;;;;5053157;28;20079;-67
2021/10/28 03:30:26;;;;;;;10.48;3.95;;;10.00;99.90;;;;;;5060624;28;20396;-65
2021/10/28 03:32:51;;;;;;;9.82;3.70;;;10.00;99.90;;;;;;5042346;28;20037;-65
2021/10/28 03:35:17;;;;;;;5.45;2.58;;;10.00;99.90;;;;;;5052566;28;20029;-65
2021/10/28 03:37:52;;;;;;;8.48;3.92;;;10.00;99.90;;;;;;5045752;28;20036;-66
2021/10/28 04:04:48;;;;;;;10.98;3.70;;;9.90;99.90;;;;;;5058182;28;21479;-66
2021/10/28 04:29:15;;;;;;;9.38;3.95;;;9.80;99.90;;;;;;4985304;28;20038;-66
2021/10/28 04:31:41;;;;;;;10.13;4.82;;;9.70;99.90;;;;;;5029072;28;20060;-67
2021/10/28 04:34:09;;;;;;;7.43;4.03;;;9.70;99.90;;;;;;5044087;28;20399;-64
2021/10/28 04:36:36;;;;;;;9.63;4.68;;;9.70;99.90;;;;;;5044297;28;20029;-65
2021/10/28 04:39:06;;;;;;;9.55;3.92;;;9.60;99.90;;;;;;5060680;28;20106;-68
2021/10/28 04:41:32;;;;;;;11.27;4.55;;;9.60;99.90;;;;;;5069526;28;20095;-64
2021/10/28 04:43:58;;;;;;;12.25;4.35;;;9.60;99.90;;;;;;5067248;28;20060;-65
2021/10/28 04:46:23;;;;;;;9.50;4.47;;;9.60;99.90;;;;;;5051869;28;20061;-66
2021/10/28 04:48:49;;;;;;;9.98;4.45;;;9.60;99.90;;;;;;5067615;28;20396;-66
2021/10/28 04:51:15;;;;;;;9.80;3.63;;;9.60;99.90;;;;;;5050261;28;20083;-69
2021/10/28 04:53:41;;;;;;;9.98;3.75;;;9.60;99.90;;;;;;5070246;28;20024;-66
2021/10/28 04:56:06;;;;;;;15.85;5.15;;;9.50;99.90;;;;;;5047591;28;20029;-67
2021/10/28 04:58:32;;;;;;;7.50;3.67;;;9.50;99.90;;;;;;5064501;28;20059;-65
2021/10/28 05:00:57;;;;;;;10.75;3.97;;;9.50;99.90;;;;;;5051063;28;20036;-66
2021/10/28 05:03:23;;;;;;;10.20;3.88;;;9.50;99.90;;;;;;5060353;28;20036;-67
2021/10/28 05:05:49;;;;;;;7.80;3.47;;;9.40;99.90;;;;;;5031518;28;20040;-65
2021/10/28 05:08:14;;;;;;;8.93;3.95;;;9.50;99.90;;;;;;5039161;28;20033;-64
2021/10/28 05:10:44;;;;;;;13.40;5.00;;;9.50;99.90;;;;;;5050087;28;20021;-65
2021/10/28 05:13:15;;;;;;;8.52;4.32;;;9.40;99.90;;;;;;5043839;28;20098;-67
2021/10/28 05:15:51;;;;;;;10.60;4.03;;;9.50;99.90;;;;;;5060411;28;20120;-65
2021/10/28 05:18:20;;;;;;;11.32;4.45;;;9.40;99.90;;;;;;5045153;28;20031;-66
2021/10/28 05:20:46;;;;;;;10.15;3.40;;;9.40;99.90;;;;;;5060405;28;20175;-66
2021/10/28 05:23:12;;;;;;;8.77;4.00;;;9.40;99.90;;;;;;5052773;28;22178;-67
2021/10/28 05:25:38;;;;;;;8.57;3.67;;;9.40;99.90;;;;;;5065590;28;20056;-66
2021/10/28 05:28:04;;;;;;;6.50;3.67;;;9.40;99.90;;;;;;5057422;28;20550;-65
2021/10/28 05:30:30;;;;;;;8.02;3.90;;;9.40;99.90;;;;;;5049511;28;20111;-66
2021/10/28 05:32:56;;;;;;;8.30;4.03;;;9.40;99.90;;;;;;5066025;28;20036;-66
2021/10/28 05:35:22;;;;;;;6.45;3.60;;;9.40;99.90;;;;;;5049851;28;20036;-68
2021/10/28 05:37:48;;;;;;;7.55;3.42;;;9.40;99.90;;;;;;5058995;28;20041;-68
2021/10/28 05:40:14;;;;;;;8.82;3.35;;;9.30;99.90;;;;;;5058556;28;20528;-68
2021/10/28 05:42:43;;;;;;;12.35;4.30;;;9.30;99.90;;;;;;5057829;28;20118;-67
2021/10/28 05:45:09;;;;;;;9.00;4.40;;;9.30;99.90;;;;;;5041998;28;20028;-68
2021/10/28 05:47:35;;;;;;;9.63;3.83;;;9.30;99.90;;;;;;5057068;28;20037;-68
2021/10/28 05:50:01;;;;;;;8.98;4.07;;;9.30;99.90;;;;;;5057676;28;20028;-68
2021/10/28 05:52:27;;;;;;;6.68;3.40;;;9.30;99.90;;;;;;5039330;28;20032;-68
2021/10/28 05:54:53;;;;;;;8.50;3.35;;;9.20;99.90;;;;;;5058481;28;20587;-71
2021/10/28 05:57:18;;;;;;;12.45;4.43;;;9.20;99.90;;;;;;5053685;28;20457;-69
2021/10/28 05:59:44;;;;;;;11.10;4.05;;;9.20;99.90;;;;;;5054630;28;20036;-67
2021/10/28 06:02:10;;;;;;;9.80;4.18;;;9.20;99.90;;;;;;5041104;28;20504;-66
2021/10/28 06:04:35;;;;;;;7.45;3.47;;;9.20;99.90;;;;;;5041861;28;20129;-67
2021/10/28 06:07:01;;;;;;;8.80;3.88;;;9.20;99.90;;;;;;5045984;28;20029;-67
2021/10/28 06:09:26;;;;;;;9.73;3.75;;;9.20;99.90;;;;;;5045953;28;20484;-68
2021/10/28 06:11:53;;;;;;;9.77;4.25;;;9.20;99.90;;;;;;5044816;28;20044;-68
2021/10/28 06:14:24;;;;;;;10.10;3.60;;;9.20;99.90;;;;;;5047689;28;20377;-68
2021/10/28 06:16:57;;;;;;;17.42;3.83;;;9.20;99.90;;;;;;5046812;28;20035;-69
2021/10/28 06:19:22;;;;;;;8.00;3.95;;;9.20;99.90;;;;;;5059667;28;20032;-67
2021/10/28 06:21:49;;;;;;;16.27;3.83;;;9.20;99.90;;;;;;5061791;28;20097;-64
2021/10/28 06:24:15;;;;;;;13.38;3.80;;;9.20;99.90;;;;;;5059420;28;20024;-66
2021/10/28 06:26:40;;;;;;;9.90;4.13;;;9.20;99.90;;;;;;5044433;28;20510;-66
2021/10/28 06:29:06;;;;;;;12.90;5.18;;;9.20;99.90;;;;;;5044586;28;20036;-68
2021/10/28 06:31:31;;;;;;;7.43;3.75;;;9.20;99.90;;;;;;5041889;28;20083;-68
2021/10/28 06:34:05;;;;;;;9.52;3.63;;;9.20;99.90;;;;;;5045032;28;20032;-67
2021/10/28 06:36:35;;;;;;;13.30;4.47;;;9.10;99.90;;;;;;5045873;28;20035;-67
2021/10/28 06:39:01;;;;;;;6.30;3.05;;;9.10;99.90;;;;;;5059351;28;20404;-67
2021/10/28 06:41:27;;;;;;;10.80;4.80;;;9.10;99.90;;;;;;5045220;28;20028;-67
2021/10/28 06:43:52;;;;;;;9.82;4.60;;;9.10;99.90;;;;;;5060548;28;20480;-68
2021/10/28 06:46:18;;;;;;;10.13;3.88;;;9.10;99.90;;;;;;5040268;28;20036;-68
2021/10/28 06:48:44;;;;;;;9.15;4.38;;;9.10;99.90;;;;;;5038091;28;20029;-68
2021/10/28 06:51:12;;;;;;;9.57;4.03;;;9.10;99.90;;;;;;5055510;28;20120;-68
2021/10/28 06:53:46;;;;;;;10.57;4.20;;;9.00;99.90;;;;;;5043801;28;20047;-67
2021/10/28 06:56:35;;;;;;;11.18;5.05;;;9.10;99.90;;;;;;5059077;28;20124;-67
2021/10/28 07:04:28;;;;;;;14.07;5.03;;;9.20;99.90;;;;;;5057079;28;20048;-67
2021/10/28 07:06:54;;;;;;;8.90;4.32;;;9.20;99.90;;;;;;5058584;28;20038;-73
2021/10/28 07:09:27;;;;;;;7.47;4.47;;;9.20;99.90;;;;;;5042461;28;20036;-68
2021/10/28 07:12:05;;;;;;;10.63;4.90;;;9.20;99.90;;;;;;5043044;28;20029;-68
2021/10/28 07:14:31;;;;;;;9.52;4.78;;;9.20;99.90;;;;;;5040696;28;20048;-67
2021/10/28 07:20:19;;;;;;;11.63;4.78;;;9.30;99.90;;;;;;5055590;28;20036;-67
2021/10/28 07:25:51;;;;;;;12.90;5.22;;;9.30;99.90;;;;;;5041624;28;20043;-67
2021/10/28 07:38:54;;;;;;;11.30;4.57;;;9.60;99.90;;;;;;5054077;28;20499;-67
2021/10/28 08:00:31;;;;;;;12.60;5.05;;;10.20;99.90;;;;;;5051700;28;20163;-66
2021/10/28 08:19:26;;;;;;;14.45;4.40;;;10.90;99.90;;;;;;5054951;28;20102;-68
2021/10/28 08:21:57;;;;;;;10.98;4.82;;;10.90;99.90;;;;;;5045230;28;20064;-67
2021/10/28 08:29:39;;;;;;;11.85;4.57;;;11.20;99.90;;;;;;5066987;28;20110;-66
2021/10/28 08:32:06;;;;;;;11.02;4.28;;;11.30;99.90;;;;;;5049801;28;20039;-64
2021/10/28 08:34:34;;;;;;;9.82;4.60;;;11.40;99.90;;;;;;5047508;28;20102;-69
2021/10/28 08:37:14;;;;;;;11.38;4.70;;;11.40;99.90;;;;;;5063203;28;20036;-69
2021/10/28 08:39:48;;;;;;;9.43;4.22;;;11.50;99.90;;;;;;5060429;28;20044;-68
2021/10/28 08:42:17;;;;;;;8.85;4.10;;;11.50;99.90;;;;;;5062458;28;20056;-68
2021/10/28 08:44:48;;;;;;;12.25;4.20;;;11.70;99.90;;;;;;5070196;28;20044;-68
2021/10/28 08:47:15;;;;;;;11.55;5.00;;;11.70;99.90;;;;;;5049679;28;20037;-70
2021/10/28 08:57:52;;;;;;;10.38;4.45;;;12.00;99.90;;;;;;5057120;28;20039;-68
2021/10/28 09:29:57;;;;;;;9.32;4.03;;;12.60;99.90;;;;;;5057009;28;20025;-68
2021/10/28 09:52:02;;;;;;;9.07;3.90;;;13.20;99.90;;;;;;5061926;28;20131;-67
2021/10/28 09:59:51;;;;;;;9.23;3.17;;;13.30;99.90;;;;;;5059801;28;20458;-67
2021/10/28 10:04:58;;;;;;;12.40;4.10;;;13.30;99.90;;;;;;5059644;28;20071;-70
2021/10/28 10:07:24;;;;;;;7.15;3.50;;;13.50;99.90;;;;;;5062796;28;20032;-68
2021/10/28 10:09:51;;;;;;;8.52;3.80;;;13.50;99.90;;;;;;5060536;28;20086;-68
2021/10/28 10:12:17;;;;;;;6.60;3.35;;;13.50;99.90;;;;;;5045577;28;20554;-68
2021/10/28 10:14:44;;;;;;;9.13;3.80;;;13.50;99.90;;;;;;5059201;28;20154;-67
2021/10/28 10:17:11;;;;;;;7.13;3.30;;;13.60;99.90;;;;;;5036100;28;20119;-65
2021/10/28 10:19:45;;;;;;;9.18;3.50;;;13.70;99.90;;;;;;5054186;28;20136;-68
2021/10/28 10:22:50;;;;;;;7.15;3.50;;;13.70;99.90;;;;;;5055017;28;20048;-68
2021/10/28 10:26:03;;;;;;;10.45;3.78;;;13.80;99.90;;;;;;5051489;28;20402;-67
2021/10/28 11:28:22;;;;;;;6.68;3.45;;;14.70;99.90;;;;;;5058538;28;20511;-67
2021/10/28 12:45:57;;;;;;;5.80;2.45;;;15.30;99.90;;;;;;5057071;28;20399;-66
2021/10/28 12:48:48;;;;;;;7.63;2.88;;;15.40;99.90;;;;;;5040867;28;20139;-68
2021/10/28 12:51:37;;;;;;;5.78;2.47;;;15.50;99.90;;;;;;5056590;28;20035;-69
2021/10/28 12:54:49;;;;;;;6.38;2.33;;;15.50;99.90;;;;;;5056330;28;20767;-68
2021/10/28 13:57:42;;;;;;;5.70;1.90;;;15.60;99.90;;;;;;5051650;28;20056;-64
2021/10/28 14:19:44;;;;;;;3.55;1.80;;;15.30;99.90;;;;;;5059005;28;20080;-67
2021/10/28 14:25:19;;;;;;;4.32;1.83;;;15.40;99.90;;;;;;5060344;28;20094;-68
2021/10/28 15:29:26;;;;;;;6.43;1.45;;;14.70;99.90;;;;;;5061130;28;20032;-67
2021/10/28 15:34:51;;;;;;;6.15;1.77;;;14.70;99.90;;;;;;5064894;28;20036;-67
2021/10/28 15:53:24;;;;;;;4.82;1.45;;;14.40;99.90;;;;;;5054529;28;20078;-68
2021/10/28 16:22:34;;;;;;;6.60;1.23;;;13.90;99.90;;;;;;5052502;28;20063;-66
2021/10/28 16:24:59;;;;;;;3.42;1.23;;;13.90;99.90;;;;;;5058523;28;20124;-66
2021/10/28 16:27:25;;;;;;;4.15;1.20;;;13.80;99.90;;;;;;5056709;28;20144;-66
2021/10/28 16:29:51;;;;;;;3.45;1.23;;;13.80;99.90;;;;;;5039298;28;20652;-67
2021/10/28 16:32:17;;;;;;;3.90;1.60;;;13.70;99.90;;;;;;5056434;28;20052;-67
2021/10/28 16:34:43;;;;;;;3.70;1.90;;;13.70;99.90;;;;;;5040881;28;20469;-67
2021/10/28 16:37:08;;;;;;;3.25;1.27;;;13.70;99.90;;;;;;5057593;28;20042;-67
2021/10/28 16:39:34;;;;;;;3.25;1.45;;;13.60;99.90;;;;;;5053543;28;20037;-66
2021/10/28 16:42:00;;;;;;;3.58;1.50;;;13.50;99.90;;;;;;5059377;28;20110;-67
2021/10/28 16:44:26;;;;;;;4.75;1.42;;;13.50;99.90;;;;;;5041981;28;20090;-67
2021/10/28 16:46:53;;;;;;;4.85;1.45;;;13.50;99.90;;;;;;5038162;28;20045;-69
2021/10/28 16:49:19;;;;;;;5.55;1.42;;;13.40;99.90;;;;;;5046444;28;20032;-67
2021/10/28 16:51:45;;;;;;;3.47;1.27;;;13.40;99.90;;;;;;5053246;28;20396;-67
2021/10/28 16:54:11;;;;;;;3.05;1.02;;;13.40;99.90;;;;;;5039621;28;20041;-67
2021/10/28 16:56:37;;;;;;;2.22;1.17;;;13.40;99.90;;;;;;5039518;28;20058;-67
2021/10/28 16:59:03;;;;;;;3.65;1.30;;;13.30;99.90;;;;;;5060084;28;20063;-68
2021/10/28 17:01:29;;;;;;;1.88;1.05;;;13.30;99.90;;;;;;5057858;28;20040;-68
2021/10/28 17:03:55;;;;;;;4.15;1.52;;;13.30;99.90;;;;;;5058773;28;20090;-67
2021/10/28 17:06:21;;;;;;;2.75;1.45;;;13.20;99.90;;;;;;5058643;28;20036;-66
2021/10/28 17:08:48;;;;;;;3.60;2.20;;;13.20;99.90;;;;;;5052691;28;20459;-65
2021/10/28 17:11:16;;;;;;;4.15;1.52;;;13.20;99.90;;;;;;5057913;28;20131;-67
2021/10/28 17:13:42;;;;;;;2.47;1.38;;;13.30;99.90;;;;;;5057432;28;20443;-68
2021/10/28 17:16:08;;;;;;;5.78;1.30;;;13.30;99.90;;;;;;5039040;28;20503;-68
2021/10/28 17:18:34;;;;;;;2.90;1.13;;;13.30;99.90;;;;;;5058082;28;20078;-67
2021/10/28 17:21:04;;;;;;;4.03;1.48;;;13.20;99.90;;;;;;5055857;28;20041;-67
2021/10/28 17:23:34;;;;;;;10.05;1.35;;;13.20;99.90;;;;;;5040677;28;20032;-67
2021/10/28 17:26:03;;;;;;;6.35;1.33;;;13.20;99.90;;;;;;5055845;28;20052;-69
2021/10/28 17:28:34;;;;;;;4.50;1.50;;;13.30;99.90;;;;;;5036406;28;20052;-65
2021/10/28 17:30:59;;;;;;;;;;;13.30;99.90;;;;;;5040322;28;20041;-67
2021/10/28 17:33:25;;;;;;;4.60;1.50;;;13.30;99.90;;;;;;5053011;28;19920;-65
2021/10/28 17:35:53;;;;;;;3.33;1.42;;;13.30;99.90;;;;;;5059301;28;20101;-67
2021/10/28 17:38:19;;;;;;;2.58;1.10;;;13.20;99.90;;;;;;5036704;28;20658;-68
2021/10/28 17:40:46;;;;;;;6.95;1.85;;;13.30;99.90;;;;;;5058198;28;20126;-66
2021/10/28 17:43:13;;;;;;;3.38;1.45;;;13.20;99.90;;;;;;5052954;28;20031;-67
2021/10/28 17:45:40;;;;;;;4.13;1.60;;;13.20;99.90;;;;;;5061543;28;20041;-67
2021/10/28 17:48:06;;;;;;;5.07;1.55;;;13.20;99.90;;;;;;5038331;28;20061;-66
2021/10/28 17:50:31;;;;;;;5.28;1.77;;;13.10;99.90;;;;;;5040141;28;20115;-68
2021/10/28 17:52:57;;;;;;;6.05;1.73;;;13.10;99.90;;;;;;5056022;28;20037;-67
2021/10/28 17:55:23;;;;;;;4.40;1.45;;;13.10;99.90;;;;;;5058587;28;20028;-69
2021/10/28 17:57:50;;;;;;;4.60;1.58;;;13.10;99.90;;;;;;5036981;28;20029;-66
2021/10/28 18:00:18;;;;;;;4.32;1.58;;;13.10;99.90;;;;;;5057919;28;20109;-69
2021/10/28 18:02:44;;;;;;;2.70;1.25;;;13.20;99.90;;;;;;5058805;28;20045;-68
2021/10/28 18:05:11;;;;;;;7.75;1.33;;;13.20;99.90;;;;;;5055139;28;20041;-66
2021/10/28 18:07:37;;;;;;;4.82;1.95;;;13.10;99.90;;;;;;5056876;28;20565;-69
2021/10/28 18:10:05;;;;;;;5.85;1.90;;;13.20;99.90;;;;;;5059202;28;20381;-68
2021/10/28 18:12:31;;;;;;;2.55;1.42;;;13.20;99.90;;;;;;5059804;28;20036;-68
2021/10/28 18:14:57;;;;;;;2.80;1.50;;;13.20;99.90;;;;;;5044449;28;20037;-69
2021/10/28 18:17:23;;;;;;;4.13;1.90;;;13.20;99.90;;;;;;5040824;28;20043;-67
2021/10/28 18:19:48;;;;;;;9.50;1.80;;;13.20;99.90;;;;;;5062655;28;20527;-67
2021/10/28 18:22:15;;;;;;;5.35;1.70;;;13.20;99.90;;;;;;5059166;28;20060;-68
2021/10/28 18:24:40;;;;;;;6.10;2.17;;;13.10;99.90;;;;;;5062801;28;20437;-66
2021/10/28 18:27:08;;;;;;;11.10;1.88;;;13.20;99.90;;;;;;5040743;28;20138;-67
2021/10/28 18:29:34;;;;;;;5.68;1.60;;;13.10;99.90;;;;;;5042099;28;20110;-68
2021/10/28 18:32:00;;;;;;;5.75;1.95;;;13.10;99.90;;;;;;5057131;28;20036;-67
2021/10/28 18:34:26;;;;;;;4.30;1.70;;;13.10;99.90;;;;;;5055442;28;20461;-67
2021/10/28 18:36:52;;;;;;;5.00;1.70;;;13.10;99.90;;;;;;5058399;28;20105;-68
2021/10/28 18:39:19;;;;;;;6.45;2.25;;;13.10;99.90;;;;;;5057465;28;20498;-66
2021/10/28 18:41:47;;;;;;;4.50;1.95;;;13.10;99.90;;;;;;5043689;28;20065;-65
2021/10/28 18:44:13;;;;;;;5.13;1.90;;;13.10;99.90;;;;;;5057808;28;20036;-66
2021/10/28 18:46:39;;;;;;;2.92;1.38;;;13.10;99.90;;;;;;5058288;28;20102;-68
2021/10/28 18:49:07;;;;;;;4.70;1.55;;;13.10;99.90;;;;;;5057057;28;20033;-67
2021/10/28 18:51:34;;;;;;;13.48;3.45;;;13.10;99.90;;;;;;5042075;28;20119;-66
2021/10/28 18:54:01;;;;;;;7.90;2.53;;;13.10;99.90;;;;;;5055819;28;20059;-68
2021/10/28 18:56:27;;;;;;;11.70;3.67;;;13.00;99.90;;;;;;5061108;28;20110;-67
2021/10/28 18:58:54;;;;;;;9.75;2.08;;;13.00;99.90;;;;;;5058592;28;20029;-65
2021/10/28 19:01:20;;;;;;;6.55;2.13;;;13.00;99.90;;;;;;5060874;28;20024;-65
2021/10/28 19:03:46;;;;;;;8.00;1.60;;;13.00;99.90;;;;;;5039403;28;20043;-68
2021/10/28 19:06:14;;;;;;;6.35;2.22;;;13.00;99.90;;;;;;5058003;28;20423;-66
2021/10/28 19:08:42;;;;;;;5.07;1.83;;;12.90;99.90;;;;;;5041898;28;20120;-68
2021/10/28 19:11:10;;;;;;;5.40;1.73;;;12.90;99.90;;;;;;5040812;28;20114;-69
2021/10/28 19:13:38;;;;;;;7.15;2.00;;;12.90;99.90;;;;;;5059690;28;20029;-66
2021/10/28 19:16:04;;;;;;;14.77;3.60;;;12.80;99.90;;;;;;5040684;28;20032;-67
2021/10/28 19:18:30;;;;;;;10.13;2.28;;;12.80;99.90;;;;;;5047254;28;20039;-68
2021/10/28 19:20:56;;;;;;;9.23;2.42;;;12.80;99.90;;;;;;5055140;28;20036;-66
2021/10/28 19:23:22;;;;;;;6.47;2.10;;;12.70;99.90;;;;;;5057190;28;20033;-68
2021/10/28 19:25:48;;;;;;;4.60;1.92;;;12.70;99.90;;;;;;5043292;28;20067;-67
2021/10/28 19:28:15;;;;;;;12.82;1.92;;;12.60;99.90;;;;;;5038288;28;20064;-68
2021/10/28 19:30:53;;;;;;;3.22;1.60;;;12.70;99.90;;;;;;5061956;28;20033;-67
2021/10/28 19:33:31;;;;;;;6.30;1.85;;;12.60;99.90;;;;;;5039100;28;20047;-68
2021/10/28 19:36:02;;;;;;;4.20;1.65;;;12.60;99.90;;;;;;5042417;28;20082;-68
2021/10/28 19:41:04;;;;;;;7.40;1.67;;;12.50;99.90;;;;;;5057340;28;20492;-67
2021/10/28 19:46:17;;;;;;;8.98;2.33;;;12.50;99.90;;;;;;5053938;28;20087;-67
2021/10/28 19:48:43;;;;;;;6.57;1.55;;;12.50;99.90;;;;;;5060549;28;20114;-67
2021/10/28 19:51:09;;;;;;;5.32;1.58;;;12.40;99.90;;;;;;5056491;28;20079;-68
2021/10/28 19:53:35;;;;;;;10.45;2.47;;;12.40;99.90;;;;;;5038143;28;20033;-69
2021/10/28 19:56:18;;;;;;;3.83;1.75;;;12.40;99.90;;;;;;5040966;28;20037;-67
2021/10/28 19:58:52;;;;;;;6.28;2.40;;;12.40;99.90;;;;;;5060661;28;20059;-68
2021/10/28 20:01:36;;;;;;;8.15;1.75;;;12.30;99.90;;;;;;5059862;28;20044;-68
2021/10/28 20:06:59;;;;;;;6.38;1.77;;;12.30;99.90;;;;;;5056590;28;20044;-68
2021/10/28 20:20:35;;;;;;;5.97;1.90;;;12.20;99.90;;;;;;5054222;28;20044;-67
2021/10/28 20:23:02;;;;;;;5.15;1.83;;;12.20;99.90;;;;;;5054722;28;20703;-66
2021/10/28 20:25:29;;;;;;;6.63;2.17;;;12.20;99.90;;;;;;5061471;28;20036;-67
2021/10/28 20:27:58;;;;;;;8.30;2.90;;;12.20;99.90;;;;;;5051535;28;20040;-67
2021/10/28 20:30:41;;;;;;;6.60;2.13;;;12.30;99.90;;;;;;5042600;28;20036;-67
2021/10/28 20:33:07;;;;;;;7.57;2.20;;;12.20;99.90;;;;;;5042619;28;20029;-67
2021/10/28 20:38:19;;;;;;;3.60;1.67;;;12.20;99.90;;;;;;5055662;28;20032;-70
2021/10/28 20:40:47;;;;;;;5.75;1.80;;;12.20;99.90;;;;;;5031839;28;20068;-69
2021/10/28 20:43:14;;;;;;;5.18;1.70;;;12.20;99.90;;;;;;5043248;28;20029;-68
2021/10/28 20:45:39;;;;;;;6.40;1.88;;;12.10;99.90;;;;;;5057446;28;20116;-67
2021/10/28 20:48:05;;;;;;;8.63;2.13;;;12.10;99.90;;;;;;5043166;28;20111;-67
2021/10/28 20:50:31;;;;;;;5.00;2.15;;;12.10;99.90;;;;;;5065372;28;20037;-67
2021/10/28 20:52:56;;;;;;;6.10;1.65;;;12.10;99.90;;;;;;5061541;28;20043;-67
2021/10/28 20:55:22;;;;;;;4.72;1.65;;;12.10;99.90;;;;;;5039264;28;20029;-68
2021/10/28 20:57:49;;;;;;;5.03;2.00;;;12.10;99.90;;;;;;5057594;28;20057;-67
2021/10/28 21:00:20;;;;;;;7.03;1.70;;;12.10;99.90;;;;;;5061234;28;20030;-67
2021/10/28 21:02:46;;;;;;;6.53;1.85;;;12.10;99.90;;;;;;5041841;28;20071;-68
2021/10/28 21:05:14;;;;;;;6.90;2.35;;;12.10;99.90;;;;;;5057970;28;20488;-67
2021/10/28 21:07:42;;;;;;;6.85;2.20;;;12.10;99.90;;;;;;5042346;28;20037;-67
2021/10/28 21:10:11;;;;;;;6.40;2.67;;;12.10;99.90;;;;;;5041055;28;20056;-67
2021/10/28 21:12:37;;;;;;;4.65;2.10;;;12.10;99.90;;;;;;5048028;28;20480;-68
2021/10/28 21:15:06;;;;;;;3.70;1.60;;;12.10;99.90;;;;;;5035219;28;20488;-67
2021/10/28 21:17:32;;;;;;;5.13;2.25;;;12.20;99.90;;;;;;5039972;28;20029;-68
2021/10/28 21:19:58;;;;;;;4.63;2.30;;;12.20;99.90;;;;;;5045237;28;20051;-67
2021/10/28 21:22:24;;;;;;;6.82;2.20;;;12.20;99.90;;;;;;5061179;28;20054;-67
2021/10/28 21:24:50;;;;;;;4.22;1.95;;;12.20;99.90;;;;;;5058205;28;20393;-67
2021/10/28 21:27:20;;;;;;;4.20;1.95;;;12.20;99.90;;;;;;5038282;28;20037;-69
2021/10/28 21:29:46;;;;;;;5.45;2.03;;;12.20;99.90;;;;;;5058841;28;20099;-67
2021/10/28 21:32:12;;;;;;;7.18;2.72;;;12.10;99.90;;;;;;5037845;28;20401;-67
2021/10/28 21:34:42;;;;;;;8.63;2.60;;;12.10;99.90;;;;;;5059505;28;20138;-67
2021/10/28 21:37:11;;;;;;;3.53;1.80;;;12.10;99.90;;;;;;5038369;28;20057;-68
2021/10/28 21:39:37;;;;;;;4.05;2.40;;;12.00;99.90;;;;;;5055862;28;20032;-69
2021/10/28 21:42:03;;;;;;;6.22;2.45;;;12.00;99.90;;;;;;5059016;28;20443;-68
2021/10/28 21:44:29;;;;;;;8.38;2.60;;;12.00;99.90;;;;;;5039190;28;20034;-67
2021/10/28 21:46:55;;;;;;;6.97;2.50;;;12.00;99.90;;;;;;5040471;28;20071;-67
2021/10/28 21:49:21;;;;;;;5.28;2.15;;;12.00;99.90;;;;;;5055890;28;20067;-67
2021/10/28 21:51:50;;;;;;;6.55;2.65;;;12.00;99.90;;;;;;5057383;28;20029;-66
2021/10/28 21:57:06;;;;;;;7.93;2.95;;;11.90;99.90;;;;;;5058577;28;20458;-67